Terminal Aerodrome Forecast
Issued by NWS

Current Version | Previous Version | Text Only | Print | Product List | Glossary On
Versions: 1 2 3 4 5 6 7 8 9 10 11 12 13
000
FTUS45 KREV 040533
TAFMMH
TAF
KMMH 040533Z 0406/0506 VRB04KT P6SM SCT120 BKN180
     FM041900 11010KT P6SM VCTS SCT070CB BKN120
     FM042300 12010KT P6SM VCSH BKN080 BKN110
     FM050200 27005KT P6SM SCT090 BKN120=

USA.gov is the U.S. government's official web portal to all federal, state and local government web resources and services.